createdAt,value
2017-08-25T00:01:42.456Z,4.50
2017-08-25T00:04:09.043Z,5.03
2017-08-25T00:06:35.601Z,4.80
2017-08-25T00:09:02.217Z,4.90
2017-08-25T00:11:28.809Z,4.67
2017-08-25T00:13:55.358Z,5.57
2017-08-25T00:16:21.931Z,5.03
2017-08-25T00:18:48.470Z,4.63
2017-08-25T00:21:14.789Z,4.83
2017-08-25T00:23:41.117Z,4.40
2017-08-25T00:26:07.464Z,5.40
2017-08-25T00:28:33.785Z,5.17
2017-08-25T00:31:00.124Z,5.43
2017-08-25T00:33:26.469Z,6.00
2017-08-25T00:35:52.844Z,5.50
2017-08-25T00:38:19.184Z,5.80
2017-08-25T00:40:45.507Z,5.87
2017-08-25T00:43:11.876Z,5.70
2017-08-25T00:45:38.236Z,5.33
2017-08-25T00:48:04.584Z,6.13
2017-08-25T00:50:30.945Z,6.10
2017-08-25T00:52:57.312Z,6.30
2017-08-25T00:55:24.288Z,6.00
2017-08-25T00:57:50.844Z,6.20
2017-08-25T01:00:17.422Z,5.87
2017-08-25T01:02:44.122Z,6.03
2017-08-25T01:05:10.768Z,5.90
2017-08-25T01:07:37.361Z,5.33
2017-08-25T01:10:04.101Z,6.50
2017-08-25T01:12:30.720Z,5.93
2017-08-25T01:14:57.241Z,5.87
2017-08-25T01:17:23.833Z,6.23
2017-08-25T01:19:50.395Z,5.90
2017-08-25T01:22:16.982Z,6.17
2017-08-25T01:24:43.613Z,6.40
2017-08-25T01:27:10.183Z,5.70
2017-08-25T01:29:36.753Z,6.07
2017-08-25T01:32:03.313Z,6.37
2017-08-25T01:34:29.896Z,6.17
2017-08-25T01:36:56.520Z,6.27
2017-08-25T01:39:23.162Z,5.83
2017-08-25T01:41:49.772Z,6.00
2017-08-25T01:44:16.350Z,6.43
2017-08-25T01:46:42.985Z,6.57
2017-08-25T01:49:09.582Z,6.20
2017-08-25T01:51:36.132Z,6.40
2017-08-25T01:54:02.700Z,6.07
2017-08-25T01:56:29.316Z,6.90
2017-08-25T01:58:55.872Z,6.80
2017-08-25T02:01:22.223Z,6.63
2017-08-25T02:03:48.572Z,5.83
2017-08-25T02:06:14.928Z,6.70
2017-08-25T02:08:41.345Z,6.93
2017-08-25T02:11:07.722Z,6.87
2017-08-25T02:13:34.095Z,5.90
2017-08-25T02:16:00.453Z,6.40
2017-08-25T02:18:26.913Z,6.87
2017-08-25T02:20:53.285Z,6.30
2017-08-25T02:23:19.636Z,6.60
2017-08-25T02:25:46.148Z,6.50
2017-08-25T02:28:12.491Z,7.07
2017-08-25T02:30:38.836Z,6.70
2017-08-25T02:33:05.189Z,6.10
2017-08-25T02:35:31.498Z,6.70
2017-08-25T02:37:57.804Z,6.50
2017-08-25T02:40:24.965Z,7.30
2017-08-25T02:42:51.523Z,6.40
2017-08-25T02:45:18.053Z,6.97
2017-08-25T02:47:44.675Z,7.00
2017-08-25T02:50:11.247Z,7.40
2017-08-25T02:52:37.836Z,6.10
2017-08-25T02:55:04.366Z,6.33
2017-08-25T02:57:30.924Z,6.30
2017-08-25T02:59:57.453Z,6.30
2017-08-25T03:02:23.962Z,7.87
2017-08-25T03:04:50.514Z,6.33
2017-08-25T03:07:17.055Z,7.60
2017-08-25T03:09:43.597Z,6.40
2017-08-25T03:12:10.190Z,7.00
2017-08-25T03:14:36.756Z,6.93
2017-08-25T03:17:03.296Z,6.70
2017-08-25T03:19:29.902Z,7.20
2017-08-25T03:21:56.437Z,6.47
2017-08-25T03:24:23.020Z,6.60
2017-08-25T03:26:49.590Z,6.83
2017-08-25T03:29:16.124Z,6.43
2017-08-25T03:31:42.645Z,6.90
2017-08-25T03:34:09.202Z,5.60
2017-08-25T03:36:36.210Z,5.70
2017-08-25T03:39:02.840Z,6.40
2017-08-25T03:41:29.638Z,6.37
2017-08-25T03:43:55.954Z,6.53
2017-08-25T03:46:22.269Z,6.27
2017-08-25T03:48:48.583Z,6.53
2017-08-25T03:51:14.921Z,6.27
2017-08-25T03:53:41.281Z,6.43
2017-08-25T03:56:07.597Z,6.67
2017-08-25T03:58:33.985Z,7.57
2017-08-25T04:01:00.334Z,6.47
2017-08-25T04:03:26.645Z,7.20
2017-08-25T04:05:52.982Z,6.57
2017-08-25T04:08:19.300Z,7.23
2017-08-25T04:10:45.658Z,6.20
2017-08-25T04:13:12.002Z,5.97
2017-08-25T04:15:38.322Z,6.40
2017-08-25T04:18:04.654Z,7.10
2017-08-25T04:20:30.976Z,6.40
2017-08-25T04:22:57.320Z,6.60
2017-08-25T04:25:24.421Z,6.87
2017-08-25T04:27:50.990Z,6.73
2017-08-25T04:30:17.496Z,7.67
2017-08-25T04:32:44.131Z,7.03
2017-08-25T04:35:10.780Z,7.10
2017-08-25T04:37:37.364Z,7.53
2017-08-25T04:40:03.988Z,6.67
2017-08-25T04:42:30.645Z,6.53
2017-08-25T04:44:57.215Z,8.77
2017-08-25T04:47:23.766Z,7.67
2017-08-25T04:49:50.333Z,7.47
2017-08-25T04:52:16.856Z,8.23
2017-08-25T04:54:43.416Z,8.33
2017-08-25T04:57:10.036Z,7.27
2017-08-25T04:59:36.621Z,7.20
2017-08-25T05:02:03.164Z,7.37
2017-08-25T05:04:29.852Z,8.33
2017-08-25T05:06:56.404Z,7.90
2017-08-25T05:09:22.990Z,8.13
2017-08-25T05:11:49.509Z,7.70
2017-08-25T05:14:16.069Z,8.67
2017-08-25T05:16:42.605Z,8.03
2017-08-25T05:19:09.172Z,7.60
2017-08-25T05:21:35.776Z,7.70
2017-08-25T05:24:02.354Z,8.03
2017-08-25T05:26:28.889Z,9.00
2017-08-25T05:28:55.452Z,8.33
2017-08-25T05:31:22.658Z,8.20
2017-08-25T05:33:49.226Z,8.27
2017-08-25T05:36:15.838Z,8.73
2017-08-25T05:38:42.372Z,8.50
2017-08-25T05:41:09.002Z,8.93
2017-08-25T05:43:35.549Z,8.97
2017-08-25T05:46:02.106Z,8.50
2017-08-25T05:48:28.681Z,9.37
2017-08-25T05:50:55.000Z,7.37
2017-08-25T05:53:21.320Z,8.37
2017-08-25T05:55:47.656Z,8.00
2017-08-25T05:58:14.004Z,8.43
2017-08-25T06:00:40.477Z,7.90
2017-08-25T06:03:06.790Z,8.33
2017-08-25T06:05:33.494Z,8.53
2017-08-25T06:07:59.820Z,7.80
2017-08-25T06:10:26.193Z,7.97
2017-08-25T06:12:52.565Z,8.00
2017-08-25T06:15:18.880Z,8.90
2017-08-25T06:17:45.227Z,8.40
2017-08-25T06:20:11.563Z,8.17
2017-08-25T06:22:37.889Z,8.07
2017-08-25T06:25:06.192Z,8.07
2017-08-25T06:27:32.497Z,8.60
2017-08-25T06:29:58.836Z,8.40
2017-08-25T06:32:25.176Z,8.00
2017-08-25T06:34:51.649Z,8.50
2017-08-25T06:37:18.208Z,8.77
2017-08-25T06:39:44.869Z,8.10
2017-08-25T06:42:11.560Z,8.10
2017-08-25T06:44:38.076Z,8.43
2017-08-25T06:47:04.621Z,8.93
2017-08-25T06:49:31.164Z,8.07
2017-08-25T06:51:57.778Z,7.00
2017-08-25T06:54:24.320Z,6.93
2017-08-25T06:56:50.868Z,5.80
2017-08-25T06:59:17.433Z,5.97
2017-08-25T07:01:43.992Z,5.40
2017-08-25T07:04:10.524Z,5.90
2017-08-25T07:06:37.070Z,6.40
2017-08-25T07:09:03.704Z,5.77
2017-08-25T07:11:30.319Z,5.40
2017-08-25T07:13:56.906Z,5.80
2017-08-25T07:16:23.432Z,5.40
2017-08-25T07:18:49.989Z,6.40
2017-08-25T07:21:16.526Z,5.50
2017-08-25T07:23:43.107Z,6.17
2017-08-25T07:26:09.660Z,5.47
2017-08-25T07:28:36.208Z,4.80
2017-08-25T07:31:02.516Z,4.80
2017-08-25T07:33:28.844Z,5.00
2017-08-25T07:35:55.181Z,5.17
2017-08-25T07:38:21.709Z,5.30
2017-08-25T07:40:48.116Z,5.80
2017-08-25T07:43:14.456Z,5.80
2017-08-25T07:45:42.616Z,5.43
2017-08-25T07:48:08.936Z,5.47
2017-08-25T07:50:35.270Z,4.20
2017-08-25T07:53:01.810Z,4.73
2017-08-25T07:55:28.333Z,4.20
2017-08-25T07:57:54.877Z,5.10
2017-08-25T08:00:26.612Z,4.70
2017-08-25T08:02:53.166Z,5.10
2017-08-25T08:05:19.690Z,5.57
2017-08-25T08:07:46.258Z,4.47
2017-08-25T08:10:12.805Z,4.90
2017-08-25T08:12:39.373Z,3.90
2017-08-25T08:15:11.848Z,4.50
2017-08-25T08:17:38.413Z,4.50
2017-08-25T08:20:04.941Z,3.37
2017-08-25T08:22:31.480Z,3.70
2017-08-25T08:24:57.998Z,3.20
2017-08-25T08:27:24.528Z,2.93
2017-08-25T08:29:55.064Z,2.20
2017-08-25T08:32:21.592Z,2.40
2017-08-25T08:34:48.121Z,2.73
2017-08-25T08:37:14.616Z,2.63
2017-08-25T08:39:41.200Z,2.27
2017-08-25T08:42:07.720Z,2.10
2017-08-25T08:44:40.330Z,1.70
2017-08-25T08:47:06.883Z,2.10
2017-08-25T08:49:33.420Z,2.20
2017-08-25T08:51:59.961Z,2.10
2017-08-25T08:54:26.512Z,2.53
2017-08-25T08:56:53.031Z,2.43
2017-08-25T08:59:24.037Z,2.20
2017-08-25T09:01:50.580Z,2.03
2017-08-25T09:04:17.081Z,2.23
2017-08-25T09:06:43.641Z,2.50
2017-08-25T09:09:10.189Z,2.20
2017-08-25T09:11:36.727Z,2.47
2017-08-25T09:14:08.391Z,2.50
2017-08-25T09:16:34.897Z,2.37
2017-08-25T09:19:01.436Z,2.57
2017-08-25T09:21:28.009Z,2.80
2017-08-25T09:23:54.329Z,2.10
2017-08-25T09:26:20.664Z,2.00
2017-08-25T09:31:18.294Z,2.53
2017-08-25T09:33:44.638Z,2.70
2017-08-25T09:36:11.002Z,2.43
2017-08-25T09:38:37.318Z,2.23
2017-08-25T09:41:03.801Z,2.23
2017-08-25T09:43:30.221Z,2.50
2017-08-25T09:45:58.240Z,2.33
2017-08-25T09:48:24.654Z,2.30
2017-08-25T09:50:50.998Z,2.40
2017-08-25T09:53:17.367Z,2.20
2017-08-25T09:55:43.727Z,1.93
2017-08-25T09:58:10.170Z,2.33
2017-08-25T10:00:36.490Z,2.50
2017-08-25T10:03:06.364Z,2.73
2017-08-25T10:05:32.877Z,2.50
2017-08-25T10:07:59.436Z,2.77
2017-08-25T10:10:25.947Z,2.77
2017-08-25T10:12:52.545Z,2.33
2017-08-25T10:15:19.168Z,2.80
2017-08-25T10:20:19.162Z,2.83
2017-08-25T10:22:45.825Z,2.70
2017-08-25T10:25:12.416Z,2.90
2017-08-25T10:27:39.003Z,3.07
2017-08-25T10:30:05.595Z,2.90
2017-08-25T10:32:34.113Z,2.83
2017-08-25T10:35:12.883Z,3.67
2017-08-25T10:41:05.452Z,2.40
2017-08-25T10:43:56.832Z,2.47
2017-08-25T10:46:23.428Z,3.23
2017-08-25T10:48:49.953Z,2.27
2017-08-25T10:51:16.481Z,3.23
2017-08-25T10:53:43.009Z,2.50
2017-08-25T10:56:13.075Z,2.60
2017-08-25T10:58:39.625Z,2.70
2017-08-25T11:01:06.202Z,2.47
2017-08-25T11:03:32.740Z,2.60
2017-08-25T11:05:59.262Z,2.30
2017-08-25T11:08:25.795Z,2.53
2017-08-25T11:10:52.316Z,2.80
2017-08-25T11:13:18.858Z,2.80
2017-08-25T11:15:47.252Z,2.63
2017-08-25T11:18:13.788Z,2.87
2017-08-25T11:20:40.344Z,2.70
2017-08-25T11:23:06.891Z,2.83
2017-08-25T11:25:33.425Z,2.60
2017-08-25T11:27:59.968Z,2.70
2017-08-25T11:30:26.483Z,2.80
2017-08-25T11:32:53.038Z,2.20
2017-08-25T11:35:23.434Z,2.27
2017-08-25T11:37:49.988Z,2.60
2017-08-25T11:40:17.505Z,2.50
2017-08-25T11:42:44.107Z,3.10
2017-08-25T11:45:10.636Z,3.03
2017-08-25T11:47:37.199Z,3.00
2017-08-25T11:50:03.708Z,2.70
2017-08-25T11:52:32.628Z,3.17
2017-08-25T11:54:59.177Z,2.70
2017-08-25T11:57:25.812Z,2.40
2017-08-25T11:59:52.121Z,2.60
2017-08-25T12:02:18.431Z,3.23
2017-08-25T12:04:44.766Z,2.70
2017-08-25T12:07:11.123Z,2.93
2017-08-25T12:09:37.432Z,2.87
2017-08-25T12:12:03.762Z,2.87
2017-08-25T12:14:30.093Z,3.07
2017-08-25T12:17:03.157Z,3.30
2017-08-25T12:19:29.538Z,2.83
2017-08-25T12:21:55.845Z,2.67
2017-08-25T12:24:22.151Z,2.97
2017-08-25T12:26:48.463Z,3.43
2017-08-25T12:29:14.778Z,3.10
2017-08-25T12:31:47.167Z,2.93
2017-08-25T12:34:13.562Z,3.00
2017-08-25T12:36:39.896Z,3.00
2017-08-25T12:39:06.220Z,2.73
2017-08-25T12:41:32.549Z,3.03
2017-08-25T12:43:59.056Z,2.50
2017-08-25T12:46:29.613Z,3.13
2017-08-25T12:48:56.186Z,3.07
2017-08-25T12:51:22.864Z,3.00
2017-08-25T12:53:49.399Z,3.63
2017-08-25T12:56:15.920Z,3.20
2017-08-25T12:58:42.462Z,3.40
2017-08-25T13:01:13.898Z,3.40
2017-08-25T13:03:40.441Z,3.30
2017-08-25T13:06:06.978Z,3.07
2017-08-25T13:08:33.554Z,3.00
2017-08-25T13:11:00.087Z,3.60
2017-08-25T13:13:26.657Z,3.50
2017-08-25T13:15:59.227Z,3.30
2017-08-25T13:18:25.806Z,3.30
2017-08-25T13:20:52.336Z,3.70
2017-08-25T13:23:18.855Z,3.77
2017-08-25T13:25:45.374Z,3.50
2017-08-25T13:28:11.955Z,3.43
2017-08-25T13:30:42.429Z,3.53
2017-08-25T13:33:08.978Z,3.40
2017-08-25T13:35:35.581Z,3.20
2017-08-25T13:38:02.137Z,3.60
2017-08-25T13:40:28.690Z,3.30
2017-08-25T13:42:55.236Z,3.40
2017-08-25T13:45:27.185Z,3.33
2017-08-25T13:47:53.715Z,3.30
2017-08-25T13:50:20.293Z,3.80
2017-08-25T13:52:46.933Z,3.17
2017-08-25T13:55:13.375Z,3.60
2017-08-25T13:57:39.904Z,3.30
2017-08-25T14:00:10.608Z,3.70
2017-08-25T14:02:37.188Z,3.47
2017-08-25T14:05:03.780Z,3.30
2017-08-25T14:07:30.254Z,3.10
2017-08-25T14:09:56.856Z,3.00
2017-08-25T14:12:23.299Z,2.97
2017-08-25T14:14:56.637Z,3.83
2017-08-25T14:17:23.207Z,3.50
2017-08-25T14:19:49.718Z,3.30
2017-08-25T14:22:16.249Z,3.23
2017-08-25T14:24:42.582Z,3.93
2017-08-25T14:27:08.917Z,3.67
2017-08-25T14:29:35.229Z,3.23
2017-08-25T14:32:01.551Z,2.93
2017-08-25T14:34:27.887Z,3.37
2017-08-25T14:36:54.206Z,3.43
2017-08-25T14:39:20.569Z,3.50
2017-08-25T14:41:46.936Z,3.43
2017-08-25T14:44:13.367Z,3.10
2017-08-25T14:46:39.683Z,3.03
2017-08-25T14:49:06.152Z,3.30
2017-08-25T14:51:32.481Z,2.60
2017-08-25T14:53:58.784Z,3.20
2017-08-25T14:56:25.133Z,3.10
2017-08-25T14:58:51.461Z,3.73
2017-08-25T15:01:18.048Z,3.07
2017-08-25T15:03:44.611Z,3.00
2017-08-25T15:06:11.169Z,3.20
2017-08-25T15:08:37.729Z,3.27
2017-08-25T15:11:04.281Z,3.57
2017-08-25T15:13:30.868Z,3.30
2017-08-25T15:15:57.521Z,3.10
2017-08-25T15:18:24.212Z,3.57
2017-08-25T15:20:50.852Z,3.10
2017-08-25T15:23:17.508Z,3.50
2017-08-25T15:25:44.287Z,3.17
2017-08-25T15:28:10.916Z,2.87
2017-08-25T15:30:37.484Z,3.30
2017-08-25T15:33:04.028Z,3.07
2017-08-25T15:35:30.690Z,3.07
2017-08-25T15:37:57.460Z,3.03
2017-08-25T15:40:24.076Z,3.50
2017-08-25T15:42:50.604Z,3.50
2017-08-25T15:45:17.240Z,3.33
2017-08-25T15:47:43.849Z,3.40
2017-08-25T15:50:10.410Z,3.13
2017-08-25T15:52:37.075Z,3.80
2017-08-25T15:55:03.641Z,2.77
2017-08-25T15:57:30.312Z,3.37
2017-08-25T15:59:57.036Z,3.63
2017-08-25T16:02:23.614Z,2.87
2017-08-25T16:04:50.148Z,2.80
2017-08-25T16:07:16.566Z,4.03
2017-08-25T16:09:42.917Z,3.00
2017-08-25T16:12:09.340Z,3.10
2017-08-25T16:14:35.642Z,3.10
2017-08-25T16:17:01.968Z,3.80
2017-08-25T16:19:28.505Z,2.90
2017-08-25T16:21:54.925Z,3.43
2017-08-25T16:24:21.238Z,3.20
2017-08-25T16:26:47.586Z,3.23
2017-08-25T16:29:14.055Z,3.57
2017-08-25T16:31:40.357Z,3.40
2017-08-25T16:34:06.711Z,4.10
2017-08-25T16:36:33.147Z,3.43
2017-08-25T16:39:00.255Z,3.17
2017-08-25T16:41:26.579Z,4.93
2017-08-25T16:43:52.934Z,3.80
2017-08-25T16:46:19.466Z,3.67
2017-08-25T16:48:46.001Z,3.73
2017-08-25T16:51:12.592Z,2.90
2017-08-25T16:53:39.186Z,3.80
2017-08-25T16:56:05.725Z,3.27
2017-08-25T16:58:32.244Z,3.80
2017-08-25T17:00:58.788Z,3.97
2017-08-25T17:03:25.332Z,3.60
2017-08-25T17:05:51.929Z,4.10
2017-08-25T17:08:18.445Z,3.00
2017-08-25T17:10:45.039Z,3.43
2017-08-25T17:13:11.619Z,3.37
2017-08-25T17:15:38.331Z,3.53
2017-08-25T17:18:04.895Z,3.93
2017-08-25T17:20:31.440Z,3.23
2017-08-25T17:22:57.981Z,3.00
2017-08-25T17:25:24.497Z,3.10
2017-08-25T17:27:51.079Z,3.40
2017-08-25T17:30:17.601Z,3.43
2017-08-25T17:32:45.489Z,3.33
2017-08-25T17:35:12.110Z,3.30
2017-08-25T17:37:38.717Z,3.43
2017-08-25T17:40:05.268Z,3.40
2017-08-25T17:42:31.988Z,3.80
2017-08-25T17:44:58.536Z,3.50
2017-08-25T17:47:29.042Z,3.23
2017-08-25T17:49:55.584Z,3.70
2017-08-25T17:52:22.114Z,3.47
2017-08-25T17:54:48.652Z,3.13
2017-08-25T17:57:15.024Z,3.27
2017-08-25T17:59:41.342Z,3.10
2017-08-25T18:02:07.676Z,3.50
2017-08-25T18:04:33.996Z,4.03
2017-08-25T18:07:06.830Z,3.47
2017-08-25T18:09:33.142Z,3.43
2017-08-25T18:11:59.458Z,3.70
2017-08-25T18:14:25.815Z,3.57
2017-08-25T18:16:52.131Z,3.60
2017-08-25T18:19:18.461Z,4.47
2017-08-25T18:21:47.556Z,3.53
2017-08-25T18:24:13.892Z,3.43
2017-08-25T18:26:40.232Z,3.07
2017-08-25T18:29:06.540Z,3.83
2017-08-25T18:31:33.448Z,3.00
2017-08-25T18:33:59.749Z,3.77
2017-08-25T18:36:26.061Z,3.63
2017-08-25T18:38:52.376Z,3.90
2017-08-25T18:41:25.335Z,3.50
2017-08-25T18:43:51.849Z,4.33
2017-08-25T18:46:18.384Z,3.13
2017-08-25T18:48:45.031Z,3.50
2017-08-25T18:51:11.586Z,2.97
2017-08-25T18:53:38.102Z,3.50
2017-08-25T18:56:08.263Z,3.40
2017-08-25T18:58:34.838Z,3.63
2017-08-25T19:01:01.373Z,3.77
2017-08-25T19:03:27.925Z,3.40
2017-08-25T19:05:54.455Z,3.50
2017-08-25T19:08:21.030Z,3.57
2017-08-25T19:10:47.752Z,3.60
2017-08-25T19:13:18.330Z,3.40
2017-08-25T19:15:44.860Z,3.50
2017-08-25T19:18:11.433Z,3.63
2017-08-25T19:20:38.029Z,3.83
2017-08-25T19:23:05.146Z,3.73
2017-08-25T19:25:31.837Z,4.27
2017-08-25T19:28:04.396Z,3.97
2017-08-25T19:30:30.997Z,4.47
2017-08-25T19:32:57.527Z,4.60
2017-08-25T19:35:24.074Z,4.20
2017-08-25T19:37:50.627Z,4.33
2017-08-25T19:40:17.151Z,4.27
2017-08-25T19:42:46.837Z,4.83
2017-08-25T19:45:13.392Z,3.97
2017-08-25T19:47:39.924Z,4.00
2017-08-25T19:50:06.545Z,4.53
2017-08-25T19:52:33.222Z,3.60
2017-08-25T19:54:59.792Z,4.63
2017-08-25T19:57:31.239Z,4.03
2017-08-25T19:59:57.604Z,4.03
2017-08-25T20:02:23.910Z,4.10
2017-08-25T20:04:50.231Z,4.00
2017-08-25T20:07:16.726Z,4.07
2017-08-25T20:09:43.147Z,3.67
2017-08-25T20:12:09.451Z,3.60
2017-08-25T20:14:41.910Z,3.47
2017-08-25T20:17:08.220Z,3.90
2017-08-25T20:19:34.671Z,3.40
2017-08-25T20:22:00.977Z,4.20
2017-08-25T20:24:27.312Z,4.23
2017-08-25T20:26:53.681Z,4.10
2017-08-25T20:29:21.724Z,4.20
2017-08-25T20:31:48.088Z,4.07
2017-08-25T20:34:14.415Z,3.67
2017-08-25T20:36:40.737Z,3.40
2017-08-25T20:39:07.039Z,4.27
2017-08-25T20:41:33.349Z,3.30
2017-08-25T20:43:59.651Z,3.50
2017-08-25T20:46:27.500Z,4.83
2017-08-25T20:49:00.142Z,3.87
2017-08-25T20:51:26.669Z,3.50
2017-08-25T20:53:53.206Z,4.00
2017-08-25T20:56:19.775Z,4.20
2017-08-25T20:58:46.420Z,3.70
2017-08-25T21:01:13.067Z,4.27
2017-08-25T21:03:39.621Z,3.70
2017-08-25T21:06:06.125Z,4.00
2017-08-25T21:08:32.752Z,4.93
2017-08-25T21:10:59.270Z,4.70
2017-08-25T21:13:25.791Z,4.30
2017-08-25T21:15:52.398Z,4.90
2017-08-25T21:18:18.972Z,4.30
2017-08-25T21:20:45.513Z,5.10
2017-08-25T21:23:12.104Z,4.73
2017-08-25T21:25:38.785Z,4.10
2017-08-25T21:28:05.315Z,5.03
2017-08-25T21:30:31.868Z,4.50
2017-08-25T21:32:58.473Z,4.27
2017-08-25T21:35:25.099Z,4.60
2017-08-25T21:37:51.625Z,4.67
2017-08-25T21:40:18.165Z,4.13
2017-08-25T21:42:44.698Z,4.70
2017-08-25T21:45:11.250Z,4.27
2017-08-25T21:47:37.804Z,4.23
2017-08-25T21:50:04.317Z,4.40
2017-08-25T21:52:30.964Z,4.60
2017-08-25T21:54:57.506Z,5.10
2017-08-25T21:57:24.085Z,4.70
2017-08-25T21:59:51.138Z,3.90
2017-08-25T22:02:17.709Z,4.60
2017-08-25T22:04:44.246Z,4.47
2017-08-25T22:07:10.795Z,4.47
2017-08-25T22:09:37.129Z,4.40
2017-08-25T22:12:03.444Z,4.83
2017-08-25T22:14:29.758Z,4.80
2017-08-25T22:16:56.079Z,4.60
2017-08-25T22:19:22.419Z,5.40
2017-08-25T22:21:48.748Z,4.60
2017-08-25T22:24:15.077Z,5.93
2017-08-25T22:26:41.664Z,5.13
2017-08-25T22:29:08.013Z,5.70
2017-08-25T22:31:34.321Z,5.43
2017-08-25T22:34:00.630Z,5.40
2017-08-25T22:36:26.942Z,5.33
2017-08-25T22:38:53.496Z,6.00
2017-08-25T22:41:20.085Z,5.90
2017-08-25T22:43:46.596Z,4.80
2017-08-25T22:46:13.159Z,4.73
2017-08-25T22:48:39.710Z,5.90
2017-08-25T22:51:06.264Z,5.70
2017-08-25T22:53:32.832Z,6.47
2017-08-25T22:55:59.369Z,5.90
2017-08-25T22:58:26.046Z,5.33
2017-08-25T23:00:52.576Z,6.33
2017-08-25T23:03:19.191Z,5.50
2017-08-25T23:05:45.744Z,5.57
2017-08-25T23:08:12.336Z,5.87
2017-08-25T23:10:39.014Z,6.30
2017-08-25T23:13:05.558Z,5.33
2017-08-25T23:15:32.200Z,5.27
2017-08-25T23:17:58.733Z,5.47
2017-08-25T23:20:25.244Z,5.40
2017-08-25T23:22:51.761Z,5.57
2017-08-25T23:25:18.296Z,5.13
2017-08-25T23:27:44.852Z,4.63
2017-08-25T23:30:11.401Z,5.93
2017-08-25T23:32:38.024Z,5.27
2017-08-25T23:35:04.545Z,5.60
2017-08-25T23:37:31.072Z,5.30
2017-08-25T23:39:57.589Z,5.40
2017-08-25T23:42:23.911Z,5.40
2017-08-25T23:44:50.218Z,5.93
2017-08-25T23:47:16.533Z,5.80
2017-08-25T23:49:42.851Z,5.40
2017-08-25T23:52:09.215Z,6.20
2017-08-25T23:54:35.542Z,5.20
2017-08-25T23:57:01.844Z,5.30
2017-08-25T23:59:28.169Z,5.43
